createdAt,value
2022-09-28T00:01:42.478Z,84.50
2022-09-28T00:04:14.192Z,84.57
2022-09-28T00:06:46.871Z,84.61
2022-09-28T00:09:18.287Z,84.52
2022-09-28T00:11:48.368Z,84.55
2022-09-28T00:14:18.108Z,84.58
2022-09-28T00:16:50.327Z,84.56
2022-09-28T00:19:20.571Z,84.64
2022-09-28T00:21:49.307Z,84.64
2022-09-28T00:24:18.159Z,84.45
2022-09-28T00:26:55.914Z,84.51
2022-09-28T00:29:28.178Z,84.64
2022-09-28T00:32:02.619Z,84.50
2022-09-28T00:34:38.469Z,84.48
2022-09-28T00:37:09.586Z,84.46
2022-09-28T00:39:42.328Z,84.38
2022-09-28T00:42:19.901Z,84.52
2022-09-28T00:44:47.933Z,84.61
2022-09-28T00:47:26.350Z,84.48
2022-09-28T00:50:01.004Z,84.48
2022-09-28T00:52:42.809Z,84.50
2022-09-28T00:55:22.083Z,84.63
2022-09-28T00:58:00.686Z,84.68
2022-09-28T01:00:28.831Z,84.74
2022-09-28T01:03:02.093Z,84.74
2022-09-28T01:05:33.032Z,84.71
2022-09-28T01:08:04.785Z,84.66
2022-09-28T01:10:34.786Z,84.59
2022-09-28T01:13:02.491Z,84.72
2022-09-28T01:15:38.415Z,84.90
2022-09-28T01:18:21.672Z,84.80
2022-09-28T01:24:46.597Z,84.93
2022-09-28T01:27:27.389Z,85.04
2022-09-28T01:30:12.305Z,84.96
2022-09-28T01:32:43.080Z,84.99
2022-09-28T01:35:41.010Z,85.00
2022-09-28T01:38:22.273Z,85.00
2022-09-28T01:40:54.442Z,85.07
2022-09-28T01:43:37.594Z,85.14
2022-09-28T01:46:17.957Z,85.23
2022-09-28T01:49:00.815Z,85.33
2022-09-28T01:51:41.160Z,85.27
2022-09-28T01:54:29.558Z,85.28
2022-09-28T01:57:10.963Z,85.40
2022-09-28T01:59:46.696Z,85.49
2022-09-28T02:02:26.780Z,85.55
2022-09-28T02:05:13.394Z,85.60
2022-09-28T02:08:03.645Z,85.64
2022-09-28T02:10:44.121Z,85.71
2022-09-28T02:13:42.910Z,85.77
2022-09-28T02:16:21.562Z,85.84
2022-09-28T02:18:53.679Z,85.88
2022-09-28T02:21:34.645Z,85.86
2022-09-28T02:24:21.713Z,85.86
2022-09-28T02:26:55.936Z,85.92
2022-09-28T02:29:27.434Z,85.95
2022-09-28T02:31:57.847Z,85.97
2022-09-28T02:34:26.275Z,85.96
2022-09-28T02:36:58.528Z,85.91
2022-09-28T02:39:28.893Z,86.04
2022-09-28T02:42:19.610Z,86.16
2022-09-28T02:45:09.949Z,86.31
2022-09-28T02:47:59.309Z,86.40
2022-09-28T02:50:52.892Z,86.53
2022-09-28T02:53:50.532Z,86.57
2022-09-28T02:56:34.387Z,86.60
2022-09-28T02:59:39.637Z,86.64
2022-09-28T03:02:26.398Z,86.65
2022-09-28T03:05:09.238Z,86.65
2022-09-28T03:08:03.566Z,86.67
2022-09-28T03:10:46.564Z,86.73
2022-09-28T03:13:18.946Z,86.73
2022-09-28T03:15:48.974Z,86.77
2022-09-28T03:18:21.605Z,86.79
2022-09-28T03:20:52.920Z,86.79
2022-09-28T03:23:24.753Z,86.70
2022-09-28T03:25:56.440Z,86.72
2022-09-28T03:28:26.733Z,86.79
2022-09-28T03:30:54.521Z,86.86
2022-09-28T03:33:23.797Z,86.89
2022-09-28T03:35:56.954Z,86.89
2022-09-28T03:38:27.072Z,86.91
2022-09-28T03:41:03.246Z,86.95
2022-09-28T03:43:32.266Z,86.95
2022-09-28T03:46:03.248Z,86.93
2022-09-28T03:48:40.147Z,86.98
2022-09-28T03:51:11.089Z,87.04
2022-09-28T03:53:40.974Z,86.92
2022-09-28T03:56:14.225Z,86.95
2022-09-28T03:58:46.760Z,86.96
2022-09-28T04:01:19.596Z,87.00
2022-09-28T04:03:56.091Z,86.93
2022-09-28T04:06:29.713Z,86.91
2022-09-28T04:08:57.841Z,86.88
2022-09-28T04:11:25.557Z,86.92
2022-09-28T04:13:53.497Z,86.88
2022-09-28T04:16:24.159Z,86.80
2022-09-28T04:19:04.387Z,86.73
2022-09-28T04:21:32.193Z,86.75
2022-09-28T04:24:00.857Z,86.74
2022-09-28T04:26:31.661Z,86.72
2022-09-28T04:29:19.533Z,86.68
2022-09-28T04:31:57.391Z,86.70
2022-09-28T04:34:29.802Z,86.66
2022-09-28T04:36:59.876Z,86.62
2022-09-28T04:39:30.550Z,86.62
2022-09-28T04:41:58.491Z,86.60
2022-09-28T04:44:26.397Z,86.59
2022-09-28T04:47:04.361Z,86.55
2022-09-28T04:49:39.772Z,86.57
2022-09-28T04:52:13.558Z,86.54
2022-09-28T04:54:47.091Z,86.53
2022-09-28T04:57:15.939Z,86.53
2022-09-28T04:59:48.213Z,86.54
2022-09-28T05:02:16.222Z,86.57
2022-09-28T05:04:43.894Z,86.59
2022-09-28T05:07:13.133Z,86.59
2022-09-28T05:09:41.235Z,86.58
2022-09-28T05:12:13.621Z,86.57
2022-09-28T05:14:43.635Z,86.57
2022-09-28T05:17:11.406Z,86.55
2022-09-28T05:19:39.508Z,86.53
2022-09-28T05:22:15.029Z,86.51
2022-09-28T05:24:43.949Z,86.47
2022-09-28T05:27:13.821Z,86.46
2022-09-28T05:29:41.866Z,86.46
2022-09-28T05:32:12.835Z,86.49
2022-09-28T05:34:40.558Z,86.54
2022-09-28T05:37:12.793Z,86.54
2022-09-28T05:39:42.852Z,86.52
2022-09-28T05:42:10.754Z,86.49
2022-09-28T05:44:39.088Z,86.46
2022-09-28T05:47:09.829Z,86.45
2022-09-28T05:49:37.505Z,86.48
2022-09-28T05:52:05.266Z,86.46
2022-09-28T05:54:36.262Z,86.45
2022-09-28T05:57:10.068Z,86.47
2022-09-28T05:59:41.520Z,86.34
2022-09-28T06:02:11.161Z,86.17
2022-09-28T06:04:39.241Z,86.06
2022-09-28T06:07:07.540Z,85.99
2022-09-28T06:09:35.266Z,85.88
2022-09-28T06:12:03.536Z,85.82
2022-09-28T06:14:31.480Z,85.76
2022-09-28T06:16:59.832Z,85.69
2022-09-28T06:19:31.465Z,85.63
2022-09-28T06:21:59.443Z,85.54
2022-09-28T06:24:30.346Z,85.46
2022-09-28T06:26:58.185Z,85.44
2022-09-28T06:29:31.763Z,85.38
2022-09-28T06:31:59.487Z,85.35
2022-09-28T06:34:31.924Z,85.32
2022-09-28T06:36:59.635Z,85.17
2022-09-28T06:39:27.957Z,85.14
2022-09-28T06:41:56.957Z,85.07
2022-09-28T06:44:25.618Z,84.97
2022-09-28T06:46:54.101Z,84.73
2022-09-28T06:49:23.078Z,84.49
2022-09-28T06:51:51.001Z,84.24
2022-09-28T06:54:20.375Z,84.16
2022-09-28T06:56:48.246Z,83.93
2022-09-28T06:59:16.111Z,83.76
2022-09-28T07:01:44.110Z,83.56
2022-09-28T07:04:13.019Z,83.45
2022-09-28T07:06:47.396Z,83.37
2022-09-28T07:09:30.681Z,83.14
2022-09-28T07:12:01.603Z,82.96
2022-09-28T07:14:47.489Z,82.71
2022-09-28T07:17:17.572Z,82.37
2022-09-28T07:19:46.547Z,82.35
2022-09-28T07:22:18.960Z,82.45
2022-09-28T07:24:49.183Z,82.49
2022-09-28T07:27:18.646Z,82.57
2022-09-28T07:29:46.394Z,82.57
2022-09-28T07:32:16.679Z,82.23
2022-09-28T07:34:45.226Z,81.48
2022-09-28T07:37:14.419Z,81.18
2022-09-28T07:40:03.295Z,80.32
2022-09-28T07:42:31.555Z,80.37
2022-09-28T07:45:00.953Z,80.54
2022-09-28T07:47:34.827Z,80.19
2022-09-28T07:50:03.987Z,79.49
2022-09-28T07:52:36.735Z,78.72
2022-09-28T07:55:07.216Z,78.82
2022-09-28T07:57:36.998Z,77.58
2022-09-28T08:00:09.291Z,77.21
2022-09-28T08:02:38.450Z,76.27
2022-09-28T08:05:10.047Z,76.31
2022-09-28T08:07:38.885Z,76.44
2022-09-28T08:10:07.671Z,77.00
2022-09-28T08:12:41.579Z,76.75
2022-09-28T08:15:11.335Z,76.37
2022-09-28T08:17:39.129Z,75.84
2022-09-28T08:20:28.833Z,75.98
2022-09-28T08:23:08.721Z,75.65
2022-09-28T08:25:38.715Z,75.67
2022-09-28T08:28:09.738Z,75.76
2022-09-28T08:30:38.745Z,70.89
2022-09-28T08:33:08.084Z,63.36
2022-09-28T08:35:37.535Z,60.12
2022-09-28T08:38:08.299Z,55.48
2022-09-28T08:41:13.815Z,50.40
2022-09-28T08:43:48.057Z,45.77
2022-09-28T08:46:23.801Z,44.51
2022-09-28T08:49:24.854Z,45.74
2022-09-28T08:52:08.356Z,46.92
2022-09-28T08:55:26.357Z,48.54
2022-09-28T08:58:20.070Z,48.15
2022-09-28T09:00:51.126Z,51.36
2022-09-28T09:03:36.027Z,53.04
2022-09-28T09:06:03.863Z,54.53
2022-09-28T09:08:56.264Z,52.21
2022-09-28T09:11:44.407Z,51.81
2022-09-28T09:14:35.023Z,51.30
2022-09-28T09:17:24.512Z,50.70
2022-09-28T09:20:07.955Z,50.50
2022-09-28T09:22:48.493Z,51.85
2022-09-28T09:25:52.097Z,49.38
2022-09-28T09:28:32.045Z,49.31
2022-09-28T09:31:43.757Z,49.16
2022-09-28T09:34:21.025Z,49.26
2022-09-28T09:37:05.480Z,49.83
2022-09-28T09:39:58.638Z,50.65
2022-09-28T09:42:29.884Z,51.43
2022-09-28T09:45:19.079Z,52.16
2022-09-28T09:47:53.699Z,53.24
2022-09-28T09:50:31.039Z,51.86
2022-09-28T09:53:25.389Z,51.69
2022-09-28T09:55:58.762Z,49.91
2022-09-28T09:58:34.398Z,49.22
2022-09-28T10:01:10.609Z,50.85
2022-09-28T10:03:44.976Z,49.73
2022-09-28T10:06:46.632Z,50.00
2022-09-28T10:09:25.324Z,49.29
2022-09-28T10:11:54.595Z,49.25
2022-09-28T10:14:24.872Z,49.40
2022-09-28T10:16:55.943Z,49.31
2022-09-28T10:19:35.163Z,49.59
2022-09-28T10:22:06.700Z,50.66
2022-09-28T10:24:41.579Z,51.38
2022-09-28T10:27:38.758Z,52.77
2022-09-28T10:30:09.565Z,52.31
2022-09-28T10:32:40.199Z,52.40
2022-09-28T10:35:23.073Z,51.99
2022-09-28T10:37:56.699Z,51.96
2022-09-28T10:40:43.600Z,52.21
2022-09-28T10:43:35.948Z,52.51
2022-09-28T10:46:07.613Z,52.49
2022-09-28T10:48:55.103Z,53.23
2022-09-28T10:51:45.519Z,53.20
2022-09-28T10:54:22.298Z,52.73
2022-09-28T10:56:52.961Z,52.73
2022-09-28T10:59:25.484Z,52.66
2022-09-28T11:01:59.966Z,52.97
2022-09-28T11:04:40.666Z,52.47
2022-09-28T11:07:20.465Z,52.04
2022-09-28T11:09:50.220Z,51.75
2022-09-28T11:12:24.846Z,51.73
2022-09-28T11:15:05.077Z,51.98
2022-09-28T11:17:40.655Z,53.11
2022-09-28T11:20:28.200Z,51.87
2022-09-28T11:23:00.365Z,51.07
2022-09-28T11:25:31.599Z,51.00
2022-09-28T11:28:05.031Z,50.69
2022-09-28T11:30:44.772Z,50.01
2022-09-28T11:33:24.470Z,51.04
2022-09-28T11:36:19.251Z,50.76
2022-09-28T11:39:13.400Z,48.76
2022-09-28T11:41:48.675Z,49.50
2022-09-28T11:44:32.530Z,50.31
2022-09-28T11:47:39.735Z,49.42
2022-09-28T11:50:32.456Z,50.61
2022-09-28T11:53:42.886Z,50.59
2022-09-28T11:56:40.627Z,49.08
2022-09-28T11:59:27.753Z,48.75
2022-09-28T12:02:22.540Z,48.74
2022-09-28T12:05:15.932Z,48.17
2022-09-28T12:07:56.581Z,48.39
2022-09-28T12:10:45.540Z,48.57
2022-09-28T12:13:23.063Z,48.83
2022-09-28T12:16:27.652Z,49.70
2022-09-28T12:21:37.256Z,50.27
2022-09-28T12:24:27.278Z,50.01
2022-09-28T12:27:04.429Z,49.37
2022-09-28T12:29:41.368Z,49.55
2022-09-28T12:32:31.489Z,50.79
2022-09-28T12:35:03.378Z,50.98
2022-09-28T12:37:53.960Z,51.16
2022-09-28T12:40:42.349Z,50.76
2022-09-28T12:43:34.034Z,51.44
2022-09-28T12:46:41.211Z,50.63
2022-09-28T12:52:50.437Z,50.71
2022-09-28T12:56:01.936Z,51.03
2022-09-28T12:58:51.040Z,50.96
2022-09-28T13:01:46.360Z,50.90
2022-09-28T13:04:37.182Z,50.91
2022-09-28T13:07:39.060Z,50.63
2022-09-28T13:10:26.576Z,49.94
2022-09-28T13:13:06.434Z,51.07
2022-09-28T13:15:50.672Z,50.22
2022-09-28T13:18:45.530Z,50.13
2022-09-28T13:21:20.170Z,50.27
2022-09-28T13:24:00.720Z,49.06
2022-09-28T13:26:43.686Z,50.20
2022-09-28T13:29:15.949Z,48.73
2022-09-28T13:31:57.391Z,48.74
2022-09-28T13:34:28.991Z,49.22
2022-09-28T13:37:18.911Z,48.94
2022-09-28T13:39:53.116Z,48.17
2022-09-28T13:42:29.696Z,48.94
2022-09-28T13:45:20.525Z,48.58
2022-09-28T13:47:59.949Z,49.41
2022-09-28T13:50:54.109Z,49.38
2022-09-28T13:53:52.498Z,49.47
2022-09-28T13:56:29.961Z,49.14
2022-09-28T13:59:15.219Z,49.83
2022-09-28T14:01:55.929Z,48.90
2022-09-28T14:04:48.580Z,48.94
2022-09-28T14:07:23.483Z,49.57
2022-09-28T14:10:24.745Z,49.00
2022-09-28T14:12:54.997Z,49.68
2022-09-28T14:15:28.524Z,50.09
2022-09-28T14:18:24.800Z,50.66
2022-09-28T14:21:26.042Z,50.83
2022-09-28T14:24:08.555Z,49.33
2022-09-28T14:26:42.263Z,49.53
2022-09-28T14:29:30.603Z,50.11
2022-09-28T14:32:10.212Z,50.29
2022-09-28T14:34:46.647Z,50.63
2022-09-28T14:37:56.881Z,51.17
2022-09-28T14:40:50.545Z,51.01
2022-09-28T14:43:25.076Z,51.88
2022-09-28T14:46:15.690Z,52.14
2022-09-28T14:49:01.818Z,52.16
2022-09-28T14:51:30.467Z,52.77
2022-09-28T14:54:08.415Z,52.73
2022-09-28T14:56:43.721Z,52.97
2022-09-28T14:59:26.281Z,53.03
2022-09-28T15:02:06.444Z,53.19
2022-09-28T15:04:39.658Z,53.04
2022-09-28T15:07:20.131Z,52.99
2022-09-28T15:09:51.517Z,53.17
2022-09-28T15:12:27.716Z,53.21
2022-09-28T15:14:58.854Z,53.56
2022-09-28T15:17:39.420Z,53.75
2022-09-28T15:20:24.702Z,53.94
2022-09-28T15:22:58.865Z,54.34
2022-09-28T15:25:31.819Z,54.43
2022-09-28T15:28:06.537Z,54.60
2022-09-28T15:30:36.548Z,54.54
2022-09-28T15:33:24.634Z,54.76
2022-09-28T15:36:04.418Z,55.16
2022-09-28T15:38:36.056Z,55.40
2022-09-28T15:41:07.174Z,55.53
2022-09-28T15:43:37.556Z,55.84
2022-09-28T15:46:20.695Z,56.14
2022-09-28T15:48:56.950Z,56.12
2022-09-28T15:51:28.670Z,56.39
2022-09-28T15:54:10.661Z,56.90
2022-09-28T15:56:58.108Z,56.99
2022-09-28T15:59:32.052Z,57.19
2022-09-28T16:02:20.907Z,58.04
2022-09-28T16:04:56.298Z,58.36
2022-09-28T16:07:34.420Z,58.30
2022-09-28T16:10:12.848Z,59.07
2022-09-28T16:13:17.868Z,58.97
2022-09-28T16:15:55.600Z,59.50
2022-09-28T16:18:26.666Z,59.34
2022-09-28T16:21:16.532Z,59.48
2022-09-28T16:23:55.719Z,59.55
2022-09-28T16:26:35.892Z,59.88
2022-09-28T16:29:25.910Z,60.35
2022-09-28T16:31:55.643Z,60.39
2022-09-28T16:34:28.664Z,60.82
2022-09-28T16:36:56.710Z,60.69
2022-09-28T16:39:26.812Z,60.99
2022-09-28T16:42:04.043Z,60.95
2022-09-28T16:44:33.839Z,61.38
2022-09-28T16:47:02.992Z,61.44
2022-09-28T16:49:35.316Z,61.15
2022-09-28T16:52:04.409Z,61.02
2022-09-28T16:54:52.000Z,60.86
2022-09-28T16:57:21.786Z,61.09
2022-09-28T16:59:50.872Z,60.95
2022-09-28T17:05:16.055Z,60.79
2022-09-28T17:07:46.193Z,60.68
2022-09-28T17:10:25.626Z,60.57
2022-09-28T17:12:53.336Z,60.46
2022-09-28T17:15:21.370Z,60.36
2022-09-28T17:17:51.905Z,60.29
2022-09-28T17:20:26.361Z,60.19
2022-09-28T17:22:54.326Z,60.03
2022-09-28T17:25:26.192Z,59.98
2022-09-28T17:27:57.620Z,59.92
2022-09-28T17:30:26.833Z,59.90
2022-09-28T17:32:55.706Z,59.84
2022-09-28T17:35:25.034Z,59.94
2022-09-28T17:37:56.961Z,60.00
2022-09-28T17:40:28.517Z,60.15
2022-09-28T17:42:59.524Z,60.22
2022-09-28T17:45:32.725Z,60.19
2022-09-28T17:48:02.808Z,60.29
2022-09-28T17:50:34.981Z,60.34
2022-09-28T17:53:07.337Z,60.45
2022-09-28T17:55:37.031Z,60.60
2022-09-28T17:58:23.505Z,60.70
2022-09-28T18:00:52.984Z,60.84
2022-09-28T18:03:24.379Z,60.84
2022-09-28T18:06:04.376Z,61.03
2022-09-28T18:08:34.775Z,61.08
2022-09-28T18:11:03.928Z,61.33
2022-09-28T18:13:34.109Z,61.42
2022-09-28T18:16:05.108Z,61.58
2022-09-28T18:18:38.786Z,61.62
2022-09-28T18:21:09.488Z,61.68
2022-09-28T18:23:40.135Z,61.82
2022-09-28T18:26:15.969Z,62.14
2022-09-28T18:28:43.941Z,62.22
2022-09-28T18:31:16.372Z,62.29
2022-09-28T18:33:45.541Z,62.41
2022-09-28T18:36:13.421Z,62.54
2022-09-28T18:38:42.681Z,62.68
2022-09-28T18:41:16.012Z,62.77
2022-09-28T18:43:51.132Z,63.04
2022-09-28T18:46:20.448Z,63.17
2022-09-28T18:48:49.596Z,63.14
2022-09-28T18:51:20.698Z,63.49
2022-09-28T18:53:51.297Z,63.58
2022-09-28T18:56:22.500Z,63.63
2022-09-28T18:58:51.933Z,63.68
2022-09-28T19:01:31.058Z,63.89
2022-09-28T19:04:04.890Z,64.04
2022-09-28T19:06:34.986Z,64.47
2022-09-28T19:09:04.903Z,64.42
2022-09-28T19:11:33.884Z,64.49
2022-09-28T19:14:04.317Z,64.45
2022-09-28T19:16:35.955Z,64.45
2022-09-28T19:19:03.715Z,64.64
2022-09-28T19:21:31.981Z,64.96
2022-09-28T19:24:04.346Z,65.22
2022-09-28T19:26:33.794Z,65.21
2022-09-28T19:29:03.793Z,65.01
2022-09-28T19:31:34.090Z,65.27
2022-09-28T19:34:04.085Z,65.52
2022-09-28T19:36:33.793Z,65.52
2022-09-28T19:39:03.442Z,65.41
2022-09-28T19:41:44.538Z,65.72
2022-09-28T19:44:25.218Z,65.77
2022-09-28T19:47:07.082Z,65.58
2022-09-28T19:49:40.482Z,65.78
2022-09-28T19:52:16.793Z,65.76
2022-09-28T19:54:57.842Z,66.25
2022-09-28T19:57:31.720Z,66.55
2022-09-28T20:00:03.751Z,66.46
2022-09-28T20:02:35.328Z,66.67
2022-09-28T20:05:06.155Z,66.96
2022-09-28T20:07:37.431Z,67.05
2022-09-28T20:10:08.073Z,67.46
2022-09-28T20:12:36.173Z,67.22
2022-09-28T20:15:06.825Z,67.94
2022-09-28T20:17:37.676Z,67.91
2022-09-28T20:20:08.244Z,67.66
2022-09-28T20:22:38.414Z,67.77
2022-09-28T20:25:07.741Z,68.22
2022-09-28T20:27:39.286Z,68.08
2022-09-28T20:30:09.612Z,67.96
2022-09-28T20:32:39.449Z,68.30
2022-09-28T20:35:09.213Z,68.04
2022-09-28T20:37:36.960Z,68.06
2022-09-28T20:40:06.823Z,68.45
2022-09-28T20:42:36.459Z,68.83
2022-09-28T20:45:06.017Z,68.48
2022-09-28T20:47:35.246Z,68.17
2022-09-28T20:50:03.262Z,68.52
2022-09-28T20:52:31.233Z,68.27
2022-09-28T20:55:00.844Z,68.28
2022-09-28T20:57:29.154Z,68.11
2022-09-28T20:59:57.052Z,67.94
2022-09-28T21:02:27.060Z,68.02
2022-09-28T21:04:55.386Z,67.78
2022-09-28T21:07:23.098Z,67.74
2022-09-28T21:09:51.100Z,67.90
2022-09-28T21:12:20.210Z,68.03
2022-09-28T21:14:48.384Z,67.81
2022-09-28T21:17:17.274Z,67.61
2022-09-28T21:19:47.166Z,67.72
2022-09-28T21:22:15.102Z,67.61
2022-09-28T21:24:43.042Z,67.79
2022-09-28T21:27:11.002Z,67.79
2022-09-28T21:29:40.641Z,67.50
2022-09-28T21:32:09.792Z,67.48
2022-09-28T21:34:38.186Z,67.58
2022-09-28T21:37:06.134Z,67.54
2022-09-28T21:39:34.404Z,67.68
2022-09-28T21:42:02.379Z,67.59
2022-09-28T21:44:30.581Z,67.55
2022-09-28T21:46:58.374Z,67.57
2022-09-28T21:49:26.286Z,67.68
2022-09-28T21:51:54.497Z,67.55
2022-09-28T21:54:24.171Z,67.81
2022-09-28T21:56:54.438Z,67.69
2022-09-28T21:59:23.878Z,67.70
2022-09-28T22:01:55.995Z,67.84
2022-09-28T22:04:23.949Z,67.70
2022-09-28T22:06:52.261Z,67.74
2022-09-28T22:09:20.215Z,67.70
2022-09-28T22:11:51.073Z,67.75
2022-09-28T22:14:19.159Z,67.82
2022-09-28T22:16:48.257Z,67.76
2022-09-28T22:19:16.079Z,67.88
2022-09-28T22:21:48.190Z,67.87
2022-09-28T22:24:16.134Z,68.00
2022-09-28T22:26:44.470Z,67.96
2022-09-28T22:29:14.649Z,68.22
2022-09-28T22:31:44.154Z,68.05
2022-09-28T22:34:12.216Z,68.02
2022-09-28T22:36:42.489Z,68.14
2022-09-28T22:39:10.658Z,68.14
2022-09-28T22:41:38.633Z,68.16
2022-09-28T22:44:06.681Z,68.12
2022-09-28T22:46:35.202Z,68.16
2022-09-28T22:49:05.327Z,68.15
2022-09-28T22:51:35.709Z,68.01
2022-09-28T22:54:03.453Z,67.95
2022-09-28T22:56:34.510Z,67.80
2022-09-28T22:59:06.628Z,67.74
2022-09-28T23:04:19.927Z,67.65
2022-09-28T23:06:49.334Z,67.64
2022-09-28T23:09:17.563Z,67.71
2022-09-28T23:11:47.774Z,67.68
2022-09-28T23:14:15.650Z,67.75
2022-09-28T23:16:46.160Z,67.83
2022-09-28T23:19:13.843Z,67.81
2022-09-28T23:21:47.115Z,67.89
2022-09-28T23:24:15.959Z,67.85
2022-09-28T23:26:45.167Z,67.85
2022-09-28T23:29:14.124Z,67.83
2022-09-28T23:31:46.476Z,67.78
2022-09-28T23:34:14.335Z,67.76
2022-09-28T23:36:44.656Z,67.75
2022-09-28T23:39:12.624Z,67.80
2022-09-28T23:41:43.004Z,67.78
2022-09-28T23:44:10.994Z,67.77
2022-09-28T23:46:42.519Z,67.76
2022-09-28T23:49:12.994Z,67.77
2022-09-28T23:51:40.769Z,67.76
2022-09-28T23:54:11.102Z,67.78
2022-09-28T23:56:41.461Z,67.74
2022-09-28T23:59:09.373Z,67.75
